Map

Track Data

SID SEASON NUMBER BASIN SUBBASIN NAME ISO_TIME NATURE LAT LON WMO_WIND WMO_PRES WMO_AGENCY TRACK_TYPE DIST2LAND LANDFALL IFLAG USA_AGENCY USA_ATCF_ID USA_LAT USA_LON USA_RECORD USA_STATUS USA_WIND USA_PRES USA_SSHS USA_R34_NE USA_R34_SE USA_R34_SW USA_R34_NW USA_R50_NE USA_R50_SE USA_R50_SW USA_R50_NW USA_R64_NE USA_R64_SE USA_R64_SW USA_R64_NW USA_POCI USA_ROCI USA_RMW USA_EYE TOKYO_LAT TOKYO_LON TOKYO_GRADE TOKYO_WIND TOKYO_PRES TOKYO_R50_DIR TOKYO_R50_LONG TOKYO_R50_SHORT TOKYO_R30_DIR TOKYO_R30_LONG TOKYO_R30_SHORT TOKYO_LAND CMA_LAT CMA_LON CMA_CAT CMA_WIND CMA_PRES HKO_LAT HKO_LON HKO_CAT HKO_WIND HKO_PRES NEWDELHI_LAT NEWDELHI_LON NEWDELHI_GRADE NEWDELHI_WIND NEWDELHI_PRES NEWDELHI_CI NEWDELHI_DP NEWDELHI_POCI REUNION_LAT REUNION_LON REUNION_TYPE REUNION_WIND REUNION_PRES REUNION_TNUM REUNION_CI REUNION_RMW REUNION_R34_NE REUNION_R34_SE REUNION_R34_SW REUNION_R34_NW REUNION_R50_NE REUNION_R50_SE REUNION_R50_SW REUNION_R50_NW REUNION_R64_NE REUNION_R64_SE REUNION_R64_SW REUNION_R64_NW BOM_LAT BOM_LON BOM_TYPE BOM_WIND BOM_PRES BOM_TNUM BOM_CI BOM_RMW BOM_R34_NE BOM_R34_SE BOM_R34_SW BOM_R34_NW BOM_R50_NE BOM_R50_SE BOM_R50_SW BOM_R50_NW BOM_R64_NE BOM_R64_SE BOM_R64_SW BOM_R64_NW BOM_ROCI BOM_POCI BOM_EYE BOM_POS_METHOD BOM_PRES_METHOD NADI_LAT NADI_LON NADI_CAT NADI_WIND NADI_PRES WELLINGTON_LAT WELLINGTON_LON WELLINGTON_WIND WELLINGTON_PRES DS824_LAT DS824_LON DS824_STAGE DS824_WIND DS824_PRES TD9636_LAT TD9636_LON TD9636_STAGE TD9636_WIND TD9636_PRES TD9635_LAT TD9635_LON TD9635_WIND TD9635_PRES TD9635_ROCI NEUMANN_LAT NEUMANN_LON NEUMANN_CLASS NEUMANN_WIND NEUMANN_PRES MLC_LAT MLC_LON MLC_CLASS MLC_WIND MLC_PRES USA_GUST BOM_GUST BOM_GUST_PER REUNION_GUST REUNION_GUST_PER USA_SEAHGT USA_SEARAD_NE USA_SEARAD_SE USA_SEARAD_SW USA_SEARAD_NW STORM_SPEED STORM_DIR
1988168N13248 1988 27 EP MM NOT_NAMED 1988-06-15 12:00:00 TS 13.0000 -112.000 30 hurdat_epa main 1035 1035 O_____________ hurdat_epa EP141988 13.0000 -112.000 TD 30 -1 6 214
1988168N13248 1988 27 EP MM NOT_NAMED 1988-06-15 15:00:00 TS 12.7450 -112.178 main 1074 1074 P_____________ EP141988 12.7450 -112.178 TD 30 -1 6 218
1988168N13248 1988 27 EP MM NOT_NAMED 1988-06-15 18:00:00 TS 12.5000 -112.400 30 hurdat_epa main 1105 1105 O_____________ hurdat_epa EP141988 12.5000 -112.400 TD 30 -1 7 228
1988168N13248 1988 27 EP MM NOT_NAMED 1988-06-15 21:00:00 TS 12.2900 -112.693 main 1144 1144 P_____________ EP141988 12.2900 -112.693 TD 30 -1 7 243
1988168N13248 1988 27 EP MM NOT_NAMED 1988-06-16 00:00:00 TS 12.2000 -113.000 30 hurdat_epa main 1175 1175 O_____________ hurdat_epa EP141988 12.2000 -113.000 TD 30 -1 6 274
1988168N13248 1988 27 EP MM NOT_NAMED 1988-06-16 03:00:00 TS 12.3275 -113.295 main 1190 1182 P_____________ EP141988 12.3275 -113.295 TD 30 -1 6 302
1988168N13248 1988 27 EP MM NOT_NAMED 1988-06-16 06:00:00 TS 12.5000 -113.500 30 hurdat_epa main 1189 1189 O_____________ hurdat_epa EP141988 12.5000 -113.500 TD 30 -1 3 303
1988168N13248 1988 27 EP MM NOT_NAMED 1988-06-16 09:00:00 TS 12.4850 -113.538 main 1189 1189 P_____________ EP141988 12.4850 -113.538 TD 30 -1 0 0
1988168N13248 1988 27 EP MM NOT_NAMED 1988-06-16 12:00:00 TS 12.5000 -113.500 30 hurdat_epa main 1189 1166 O_____________ hurdat_epa EP141988 12.5000 -113.500 TD 30 -1 3 23
1988168N13248 1988 27 EP MM NOT_NAMED 1988-06-16 15:00:00 TS 12.7499 -113.425 main 1166 1143 P_____________ EP141988 12.7499 -113.425 TD 30 -1 5 2
1988168N13248 1988 27 EP MM NOT_NAMED 1988-06-16 18:00:00 TS 13.0000 -113.500 30 hurdat_epa main 1151 1151 O_____________ hurdat_epa EP141988 13.0000 -113.500 TD 30 -1 6 296
1988168N13248 1988 27 EP MM NOT_NAMED 1988-06-16 21:00:00 TS 13.0305 -114.008 main 1185 1185 P_____________ EP141988 13.0305 -114.008 TD 30 -1 10 270
1988168N13248 1988 27 EP MM NOT_NAMED 1988-06-17 00:00:00 TS 13.0000 -114.500 30 hurdat_epa main 1205 1201 O_____________ hurdat_epa EP141988 13.0000 -114.500 TD 30 -1 4 269
1988168N13248 1988 27 EP MM NOT_NAMED 1988-06-17 03:00:00 TS 13.0197 -114.443 main 1201 1190 P_____________ EP141988 13.0197 -114.443 TD 30 -1 1 43
1988168N13248 1988 27 EP MM NOT_NAMED 1988-06-17 06:00:00 TS 13.1000 -114.400 30 hurdat_epa main 1190 1184 O_____________ hurdat_epa EP141988 13.1000 -114.400 TD 30 -1 6 301
1988168N13248 1988 27 EP MM NOT_NAMED 1988-06-17 09:00:00 TS 13.3081 -114.942 main 1192 1191 P_____________ EP141988 13.3081 -114.942 TD 30 -1 11 290
1988168N13248 1988 27 EP MM NOT_NAMED 1988-06-17 12:00:00 TS 13.5000 -115.500 30 hurdat_epa main 1201 1201 O_____________ hurdat_epa EP141988 13.5000 -115.500 TD 30 -1 7 290
1988168N13248 1988 27 EP MM NOT_NAMED 1988-06-17 15:00:00 TS 13.5298 -115.583 main 1206 1201 P_____________ EP141988 13.5298 -115.583 TD 30 -1 0 0
1988168N13248 1988 27 EP MM NOT_NAMED 1988-06-17 18:00:00 TS 13.5000 -115.500 30 hurdat_epa main 1201 1201 O_____________ hurdat_epa EP141988 13.5000 -115.500 TD 30 -1 1 122
1988168N13248 1988 27 EP MM NOT_NAMED 1988-06-17 21:00:00 TS 13.5000 -115.538 main 1201 1201 P_____________ EP141988 13.5000 -115.538 TD 27 -1 0 0
1988168N13248 1988 27 EP MM NOT_NAMED 1988-06-18 00:00:00 TS 13.5000 -115.500 25 hurdat_epa main 1201 1191 O_____________ hurdat_epa EP141988 13.5000 -115.500 TD 25 -1 2 99
1988168N13248 1988 27 EP MM NOT_NAMED 1988-06-18 03:00:00 TS 13.4699 -115.332 main 1191 1176 P_____________ EP141988 13.4699 -115.332 TD 25 -1 5 90
1988168N13248 1988 27 EP MM NOT_NAMED 1988-06-18 06:00:00 TS 13.5000 -115.000 25 hurdat_epa main 1176 1133 O_____________ hurdat_epa EP141988 13.5000 -115.000 TD 25 -1 9 74
1988168N13248 1988 27 EP MM NOT_NAMED 1988-06-18 09:00:00 TS 13.7002 -114.480 main 1133 1087 P_____________ EP141988 13.7002 -114.480 TD 25 -1 11 69
1988168N13248 1988 27 EP MM NOT_NAMED 1988-06-18 12:00:00 TS 13.9000 -113.900 25 hurdat_epa main 1087 1058 O_____________ hurdat_epa EP141988 13.9000 -113.900 TD 25 -1 11 76
1988168N13248 1988 27 EP MM NOT_NAMED 1988-06-18 15:00:00 TS 13.9499 -113.415 main 1068 1045 P_____________ EP141988 13.9499 -113.415 TD 25 -1 9 90
1988168N13248 1988 27 EP MM NOT_NAMED 1988-06-18 18:00:00 TS 13.9000 -113.000 25 hurdat_epa main 1045 O_____________ hurdat_epa EP141988 13.9000 -113.000 TD 25 -1 8 97

About IBTrACS Database

This database is a web-friendly format of International Best Track Archive for Climate Stewardship (IBTrACS), a global best track data archive curated by NOAA dating back to 1842.

Updated: 2021-12-03